Terminal Aerodrome Forecast
Issued by NWS Cleveland, OH

Home | Current Version | Previous Version | Text Only | Print | Product List | Glossary Off
Versions: 1 2 3 4 5 6 7 8 9 10 11 12 13 14 15 16 17 18 19 20 21 22 23 24 25 26 27 28 29 30 31 32 33 34

000
FTUS41 KCLE 242000 AAB
TAFCLE
TAF AMD
KCLE 242055Z 2421/2524 06007KT P6SM BKN040
     FM250100 09005KT P6SM SCT035
     FM251000 16005KT 5SM BR BKN080
     FM251400 16007KT P6SM BKN015
     FM251900 36005KT P6SM BKN035
     FM252300 13005KT P6SM SCT035=

USA.gov is the U.S. government's official web portal to all federal, state and local government web resources and services.